createdAt,value
2018-07-22T00:01:09.218Z,99.90
2018-07-22T00:03:39.201Z,99.90
2018-07-22T00:06:09.129Z,99.90
2018-07-22T00:08:39.161Z,99.90
2018-07-22T00:11:09.083Z,99.90
2018-07-22T00:13:39.007Z,99.90
2018-07-22T00:16:08.958Z,99.90
2018-07-22T00:21:08.642Z,99.90
2018-07-22T00:23:49.765Z,99.90
2018-07-22T00:26:19.820Z,99.90
2018-07-22T00:28:49.748Z,99.90
2018-07-22T00:31:19.654Z,99.90
2018-07-22T00:33:49.606Z,99.90
2018-07-22T00:36:19.551Z,99.90
2018-07-22T00:41:19.187Z,99.90
2018-07-22T00:43:49.205Z,99.90
2018-07-22T00:46:19.144Z,99.90
2018-07-22T00:48:49.031Z,99.90
2018-07-22T00:51:19.001Z,99.90
2018-07-22T00:53:48.904Z,99.90
2018-07-22T00:56:18.962Z,99.90
2018-07-22T00:58:48.994Z,99.90
2018-07-22T01:01:19.739Z,99.90
2018-07-22T01:03:49.902Z,99.90
2018-07-22T01:06:19.904Z,99.90
2018-07-22T01:11:19.453Z,99.90
2018-07-22T01:13:49.340Z,99.90
2018-07-22T01:16:19.515Z,99.90
2018-07-22T01:21:19.166Z,99.90
2018-07-22T01:23:49.145Z,99.90
2018-07-22T01:26:19.126Z,99.90
2018-07-22T01:28:49.018Z,99.90
2018-07-22T01:31:19.042Z,99.90
2018-07-22T01:33:48.979Z,99.90
2018-07-22T01:36:18.927Z,99.90
2018-07-22T01:38:48.854Z,99.90
2018-07-22T01:41:18.902Z,99.90
2018-07-22T01:43:48.795Z,99.90
2018-07-22T01:46:18.766Z,99.90
2018-07-22T01:48:48.790Z,99.90
2018-07-22T01:51:18.794Z,99.90
2018-07-22T01:53:48.727Z,99.90
2018-07-22T01:58:48.278Z,99.90
2018-07-22T02:03:48.155Z,99.90
2018-07-22T02:06:18.075Z,99.90
2018-07-22T02:08:48.216Z,99.90
2018-07-22T02:11:18.115Z,99.90
2018-07-22T02:13:48.174Z,99.90
2018-07-22T02:16:18.077Z,99.90
2018-07-22T02:18:48.009Z,99.90
2018-07-22T02:21:17.951Z,99.90
2018-07-22T02:23:47.888Z,99.90
2018-07-22T02:26:17.819Z,99.90
2018-07-22T02:28:47.742Z,99.90
2018-07-22T02:31:17.664Z,99.90
2018-07-22T02:33:47.704Z,99.90
2018-07-22T02:36:17.633Z,99.90
2018-07-22T02:38:47.563Z,99.90
2018-07-22T02:43:47.537Z,99.90
2018-07-22T02:46:17.552Z,99.90
2018-07-22T02:48:47.480Z,99.90
2018-07-22T02:51:17.481Z,99.90
2018-07-22T02:53:47.441Z,99.90
2018-07-22T02:56:17.367Z,99.90
2018-07-22T03:01:17.225Z,99.90
2018-07-22T03:03:47.254Z,99.90
2018-07-22T03:06:17.155Z,99.90
2018-07-22T03:08:47.067Z,99.90
2018-07-22T03:13:46.663Z,99.90
2018-07-22T03:16:16.592Z,99.90
2018-07-22T03:18:46.518Z,99.90
2018-07-22T03:21:16.394Z,99.90
2018-07-22T03:23:46.378Z,99.90
2018-07-22T03:26:16.243Z,99.90
2018-07-22T03:28:46.185Z,99.90
2018-07-22T03:31:16.238Z,99.90
2018-07-22T03:33:46.397Z,99.90
2018-07-22T03:36:16.429Z,99.90
2018-07-22T03:38:46.356Z,99.90
2018-07-22T03:41:16.337Z,99.90
2018-07-22T03:46:15.983Z,99.90
2018-07-22T03:48:45.920Z,99.90
2018-07-22T03:51:15.895Z,99.90
2018-07-22T03:53:45.802Z,99.90
2018-07-22T03:56:15.771Z,99.90
2018-07-22T03:58:45.784Z,99.90
2018-07-22T04:01:15.646Z,99.90
2018-07-22T04:03:45.566Z,99.90
2018-07-22T04:06:15.569Z,99.90
2018-07-22T04:08:45.498Z,99.90
2018-07-22T04:11:15.386Z,99.90
2018-07-22T04:13:45.384Z,99.90
2018-07-22T04:16:15.385Z,99.90
2018-07-22T04:18:49.870Z,99.90
2018-07-22T04:21:20.417Z,99.90
2018-07-22T04:23:50.699Z,99.90
2018-07-22T04:28:51.580Z,99.90
2018-07-22T04:31:21.747Z,99.90
2018-07-22T04:33:51.745Z,99.90
2018-07-22T04:36:21.634Z,99.90
2018-07-22T04:38:51.703Z,99.90
2018-07-22T04:41:21.632Z,99.90
2018-07-22T04:43:51.502Z,99.90
2018-07-22T04:46:21.489Z,99.90
2018-07-22T04:51:20.961Z,99.90
2018-07-22T04:53:50.891Z,99.90
2018-07-22T04:56:20.822Z,99.90
2018-07-22T05:03:50.271Z,99.90
2018-07-22T05:06:20.200Z,99.90
2018-07-22T05:08:50.118Z,99.90
2018-07-22T05:11:20.159Z,99.90
2018-07-22T05:13:50.054Z,99.90
2018-07-22T05:16:20.019Z,99.90
2018-07-22T05:18:50.047Z,99.90
2018-07-22T05:21:19.951Z,99.90
2018-07-22T05:23:49.972Z,99.90
2018-07-22T05:26:19.914Z,99.90
2018-07-22T05:28:49.826Z,99.90
2018-07-22T05:31:19.795Z,99.90
2018-07-22T05:33:49.821Z,99.90
2018-07-22T05:36:19.852Z,99.90
2018-07-22T05:38:49.819Z,99.90
2018-07-22T05:41:19.812Z,99.90
2018-07-22T05:43:49.886Z,99.90
2018-07-22T05:46:19.872Z,99.90
2018-07-22T05:48:49.770Z,99.90
2018-07-22T05:51:19.687Z,99.90
2018-07-22T05:53:49.668Z,99.90
2018-07-22T05:56:19.591Z,99.90
2018-07-22T05:58:49.512Z,99.90
2018-07-22T06:01:19.484Z,99.90
2018-07-22T06:03:49.403Z,99.90
2018-07-22T06:06:19.404Z,99.90
2018-07-22T06:08:49.331Z,99.90
2018-07-22T06:11:19.362Z,99.90
2018-07-22T06:13:49.527Z,99.90
2018-07-22T06:16:19.667Z,99.90
2018-07-22T06:18:49.582Z,99.90
2018-07-22T06:21:19.513Z,99.90
2018-07-22T06:26:18.970Z,99.90
2018-07-22T06:28:48.883Z,99.90
2018-07-22T06:31:18.930Z,99.90
2018-07-22T06:33:48.847Z,99.90
2018-07-22T06:36:18.844Z,99.90
2018-07-22T06:41:18.427Z,99.90
2018-07-22T06:43:48.439Z,99.90
2018-07-22T06:46:18.443Z,99.90
2018-07-22T06:48:48.371Z,99.90
2018-07-22T06:51:18.297Z,99.90
2018-07-22T06:53:48.244Z,99.90
2018-07-22T06:56:18.181Z,99.90
2018-07-22T06:58:48.212Z,99.90
2018-07-22T07:01:18.451Z,99.90
2018-07-22T07:06:17.942Z,99.90
2018-07-22T07:08:47.858Z,99.90
2018-07-22T07:11:17.857Z,99.90
2018-07-22T07:13:47.785Z,99.90
2018-07-22T07:16:17.732Z,99.90
2018-07-22T07:18:47.847Z,99.90
2018-07-22T07:21:17.811Z,99.90
2018-07-22T07:23:47.808Z,99.90
2018-07-22T07:26:17.738Z,99.90
2018-07-22T07:28:47.685Z,99.90
2018-07-22T07:31:17.797Z,99.90
2018-07-22T07:33:47.735Z,99.90
2018-07-22T07:36:17.768Z,99.90
2018-07-22T07:38:47.684Z,99.90
2018-07-22T07:41:17.660Z,99.90
2018-07-22T07:43:47.662Z,99.90
2018-07-22T07:46:17.618Z,99.90
2018-07-22T07:51:17.327Z,99.90
2018-07-22T07:53:47.357Z,99.90
2018-07-22T07:56:17.243Z,99.90
2018-07-22T07:58:47.214Z,99.90
2018-07-22T08:01:17.245Z,99.90
2018-07-22T08:03:47.204Z,99.90
2018-07-22T08:06:17.211Z,99.90
2018-07-22T08:08:47.083Z,99.90
2018-07-22T08:11:17.036Z,99.90
2018-07-22T08:13:46.983Z,99.90
2018-07-22T08:16:17.020Z,99.90
2018-07-22T08:18:46.951Z,99.90
2018-07-22T08:21:16.877Z,99.90
2018-07-22T08:23:46.808Z,99.90
2018-07-22T08:26:16.702Z,99.90
2018-07-22T08:29:35.017Z,99.90
2018-07-22T08:32:05.891Z,99.90
2018-07-22T08:34:35.831Z,99.90
2018-07-22T08:37:05.747Z,99.90
2018-07-22T08:39:35.678Z,99.90
2018-07-22T08:42:05.699Z,99.90
2018-07-22T08:44:35.631Z,99.90
2018-07-22T08:47:05.793Z,99.90
2018-07-22T08:49:35.864Z,99.90
2018-07-22T08:52:05.894Z,99.90
2018-07-22T08:54:35.924Z,99.90
2018-07-22T08:57:06.138Z,99.90
2018-07-22T08:59:36.155Z,99.90
2018-07-22T09:02:06.501Z,99.90
2018-07-22T09:04:36.522Z,99.90
2018-07-22T09:09:36.057Z,99.90
2018-07-22T09:12:06.045Z,99.90
2018-07-22T09:14:36.038Z,99.90
2018-07-22T09:17:06.002Z,99.90
2018-07-22T09:19:36.236Z,99.90
2018-07-22T09:22:06.143Z,99.90
2018-07-22T09:27:05.771Z,99.90
2018-07-22T09:29:35.603Z,99.90
2018-07-22T09:32:05.544Z,99.90
2018-07-22T09:34:35.535Z,99.90
2018-07-22T09:37:05.530Z,99.90
2018-07-22T09:39:35.458Z,99.90
2018-07-22T09:42:05.592Z,99.90
2018-07-22T09:44:35.527Z,99.90
2018-07-22T09:47:05.574Z,99.90
2018-07-22T09:49:35.543Z,99.90
2018-07-22T09:54:35.336Z,99.90
2018-07-22T09:57:05.264Z,99.90
2018-07-22T10:02:04.847Z,99.90
2018-07-22T10:04:35.232Z,99.90
2018-07-22T10:09:34.906Z,99.90
2018-07-22T10:12:04.938Z,99.90
2018-07-22T10:14:35.044Z,99.90
2018-07-22T10:17:05.410Z,99.90
2018-07-22T10:19:35.443Z,99.90
2018-07-22T10:22:05.368Z,99.90
2018-07-22T10:24:35.402Z,99.90
2018-07-22T10:27:05.280Z,99.90
2018-07-22T10:29:35.255Z,99.90
2018-07-22T10:34:35.066Z,99.90
2018-07-22T10:37:05.068Z,99.90
2018-07-22T10:39:35.138Z,99.90
2018-07-22T10:42:05.119Z,99.90
2018-07-22T10:44:35.067Z,99.90
2018-07-22T10:47:05.036Z,99.90
2018-07-22T10:49:35.400Z,99.90
2018-07-22T10:52:05.319Z,99.90
2018-07-22T10:54:35.360Z,99.90
2018-07-22T10:57:05.539Z,99.90
2018-07-22T10:59:35.530Z,99.90
2018-07-22T11:02:05.555Z,99.90
2018-07-22T11:04:36.419Z,99.90
2018-07-22T11:12:05.718Z,99.90
2018-07-22T11:14:35.853Z,99.90
2018-07-22T11:17:05.955Z,99.90
2018-07-22T11:19:35.975Z,99.90
2018-07-22T11:22:06.007Z,99.90
2018-07-22T11:24:36.037Z,99.90
2018-07-22T11:27:06.314Z,99.90
2018-07-22T11:29:36.508Z,99.90
2018-07-22T11:34:36.095Z,98.80
2018-07-22T11:37:06.158Z,99.90
2018-07-22T11:39:36.102Z,98.70
2018-07-22T11:42:06.074Z,98.10
2018-07-22T11:44:36.119Z,96.40
2018-07-22T11:47:06.110Z,96.50
2018-07-22T11:49:36.040Z,96.90
2018-07-22T11:52:05.966Z,96.60
2018-07-22T11:57:05.659Z,96.40
2018-07-22T11:59:35.650Z,95.80
2018-07-22T12:02:05.576Z,94.40
2018-07-22T12:04:35.559Z,94.60
2018-07-22T12:07:05.640Z,94.10
2018-07-22T12:09:35.610Z,94.70
2018-07-22T12:14:35.291Z,94.60
2018-07-22T12:17:05.250Z,94.90
2018-07-22T12:19:35.162Z,95.30
2018-07-22T12:22:05.317Z,94.90
2018-07-22T12:24:35.321Z,95.70
2018-07-22T12:27:05.318Z,95.40
2018-07-22T12:29:35.287Z,94.90
2018-07-22T12:32:05.211Z,94.30
2018-07-22T12:34:35.227Z,93.00
2018-07-22T12:37:05.293Z,93.90
2018-07-22T12:39:35.212Z,92.00
2018-07-22T12:42:05.664Z,93.00
2018-07-22T12:44:35.595Z,92.30
2018-07-22T12:47:06.138Z,92.00
2018-07-22T12:49:36.071Z,92.10
2018-07-22T12:52:06.023Z,91.60
2018-07-22T12:54:36.022Z,89.60
2018-07-22T12:57:06.031Z,90.40
2018-07-22T12:59:36.039Z,90.10
2018-07-22T13:02:06.055Z,88.90
2018-07-22T13:04:36.063Z,90.30
2018-07-22T13:07:06.318Z,88.90
2018-07-22T13:09:36.282Z,90.50
2018-07-22T13:12:07.262Z,90.70
2018-07-22T13:14:37.171Z,90.50
2018-07-22T13:17:07.155Z,91.60
2018-07-22T13:19:37.097Z,90.50
2018-07-22T13:22:07.162Z,90.80
2018-07-22T13:24:37.098Z,87.10
2018-07-22T13:27:07.015Z,86.10
2018-07-22T13:29:37.048Z,84.70
2018-07-22T13:32:06.962Z,85.90
2018-07-22T13:34:36.942Z,85.70
2018-07-22T13:37:07.516Z,87.70
2018-07-22T13:39:37.423Z,89.60
2018-07-22T13:42:07.351Z,91.50
2018-07-22T13:44:37.359Z,91.70
2018-07-22T13:47:07.231Z,91.40
2018-07-22T13:52:06.807Z,91.10
2018-07-22T13:54:36.735Z,92.70
2018-07-22T13:57:07.003Z,91.80
2018-07-22T13:59:36.891Z,92.50
2018-07-22T14:02:07.298Z,93.10
2018-07-22T14:04:37.389Z,92.60
2018-07-22T14:07:07.435Z,94.00
2018-07-22T14:09:37.416Z,93.80
2018-07-22T14:12:07.646Z,94.30
2018-07-22T14:17:07.143Z,97.20
2018-07-22T14:19:37.371Z,98.10
2018-07-22T14:22:07.350Z,98.40
2018-07-22T14:24:37.339Z,98.80
2018-07-22T14:27:07.242Z,99.30
2018-07-22T14:29:37.298Z,99.80
2018-07-22T14:32:07.449Z,99.90
2018-07-22T14:37:07.084Z,99.90
2018-07-22T14:39:37.117Z,99.90
2018-07-22T14:42:07.066Z,99.90
2018-07-22T14:44:37.019Z,99.90
2018-07-22T14:47:07.157Z,99.90
2018-07-22T14:49:37.015Z,99.90
2018-07-22T14:52:06.954Z,99.90
2018-07-22T14:57:06.604Z,99.90
2018-07-22T14:59:36.543Z,99.90
2018-07-22T15:04:36.115Z,99.90
2018-07-22T15:07:06.072Z,99.90
2018-07-22T15:09:36.182Z,99.90
2018-07-22T15:12:06.134Z,99.90
2018-07-22T15:14:36.123Z,99.90
2018-07-22T15:17:06.150Z,99.90
2018-07-22T15:19:36.380Z,99.90
2018-07-22T15:22:06.291Z,99.90
2018-07-22T15:24:36.212Z,99.90
2018-07-22T15:27:06.143Z,99.90
2018-07-22T15:29:36.189Z,99.90
2018-07-22T15:32:06.027Z,99.90
2018-07-22T15:34:36.058Z,99.90
2018-07-22T15:37:06.075Z,99.90
2018-07-22T15:39:36.013Z,99.90
2018-07-22T15:42:05.986Z,99.90
2018-07-22T15:44:35.954Z,99.90
2018-07-22T15:49:35.680Z,99.90
2018-07-22T15:54:35.314Z,99.90
2018-07-22T15:57:05.454Z,99.90
2018-07-22T15:59:35.411Z,99.90
2018-07-22T16:02:05.459Z,99.90
2018-07-22T16:07:05.568Z,99.90
2018-07-22T16:09:35.458Z,99.90
2018-07-22T16:14:35.211Z,99.90
2018-07-22T16:17:05.210Z,99.90
2018-07-22T16:19:35.135Z,99.90
2018-07-22T16:22:05.309Z,99.90
2018-07-22T16:24:35.262Z,99.90
2018-07-22T16:27:05.338Z,99.90
2018-07-22T16:29:35.300Z,99.90
2018-07-22T16:32:05.231Z,99.90
2018-07-22T16:34:35.226Z,99.90
2018-07-22T16:37:05.389Z,99.90
2018-07-22T16:39:35.306Z,99.90
2018-07-22T16:42:05.386Z,99.90
2018-07-22T16:44:35.289Z,99.90
2018-07-22T16:47:05.309Z,99.90
2018-07-22T16:49:35.187Z,99.90
2018-07-22T16:52:05.168Z,99.90
2018-07-22T16:54:35.259Z,99.90
2018-07-22T16:57:05.200Z,99.90
2018-07-22T16:59:35.190Z,99.90
2018-07-22T17:02:05.123Z,99.90
2018-07-22T17:04:35.062Z,99.90
2018-07-22T17:07:04.999Z,99.90
2018-07-22T17:09:35.123Z,99.90
2018-07-22T17:12:05.076Z,99.90
2018-07-22T17:14:34.993Z,99.90
2018-07-22T17:17:05.078Z,99.90
2018-07-22T17:19:35.023Z,99.90
2018-07-22T17:22:04.976Z,99.90
2018-07-22T17:24:35.364Z,99.90
2018-07-22T17:27:05.419Z,99.90
2018-07-22T17:29:35.394Z,99.90
2018-07-22T17:34:35.182Z,99.90
2018-07-22T17:39:34.834Z,99.90
2018-07-22T17:42:04.765Z,99.90
2018-07-22T17:44:35.394Z,99.90
2018-07-22T17:47:05.450Z,99.90
2018-07-22T17:49:35.472Z,99.90
2018-07-22T17:52:05.506Z,99.90
2018-07-22T17:54:35.662Z,99.90
2018-07-22T17:57:05.806Z,99.90
2018-07-22T17:59:35.791Z,99.90
2018-07-22T18:04:35.463Z,99.90
2018-07-22T18:07:05.689Z,99.90
2018-07-22T18:09:35.723Z,99.90
2018-07-22T18:17:05.488Z,99.90
2018-07-22T18:22:05.418Z,99.90
2018-07-22T18:24:35.490Z,99.90
2018-07-22T18:29:35.343Z,99.90
2018-07-22T18:32:05.384Z,99.90
2018-07-22T18:34:35.659Z,99.90
2018-07-22T18:37:05.771Z,99.90
2018-07-22T18:39:35.667Z,99.90
2018-07-22T18:42:05.712Z,99.90
2018-07-22T18:44:35.665Z,99.90
2018-07-22T18:47:05.658Z,99.90
2018-07-22T18:49:35.648Z,99.90
2018-07-22T18:52:05.630Z,99.90
2018-07-22T18:54:35.569Z,99.90
2018-07-22T18:57:05.488Z,99.90
2018-07-22T19:02:06.779Z,99.90
2018-07-22T19:04:36.707Z,99.90
2018-07-22T19:07:06.636Z,99.90
2018-07-22T19:09:36.650Z,99.90
2018-07-22T19:14:36.323Z,99.90
2018-07-22T19:17:06.255Z,99.90
2018-07-22T19:19:36.199Z,99.90
2018-07-22T19:22:06.238Z,99.90
2018-07-22T19:24:36.175Z,99.90
2018-07-22T19:27:06.123Z,99.90
2018-07-22T19:29:36.058Z,99.90
2018-07-22T19:32:06.332Z,99.90
2018-07-22T19:34:36.387Z,99.90
2018-07-22T19:37:06.376Z,99.90
2018-07-22T19:39:36.319Z,99.90
2018-07-22T19:42:06.350Z,99.90
2018-07-22T19:44:36.279Z,99.90
2018-07-22T19:47:06.220Z,99.90
2018-07-22T19:49:36.150Z,99.90
2018-07-22T19:52:06.238Z,99.90
2018-07-22T19:54:36.267Z,99.90
2018-07-22T19:57:06.332Z,99.90
2018-07-22T19:59:36.266Z,99.90
2018-07-22T20:02:06.307Z,99.90
2018-07-22T20:04:36.258Z,99.90
2018-07-22T20:07:06.354Z,99.90
2018-07-22T20:14:35.654Z,99.90
2018-07-22T20:17:05.760Z,99.90
2018-07-22T20:19:35.639Z,99.90
2018-07-22T20:22:05.597Z,99.90
2018-07-22T20:24:35.522Z,99.90
2018-07-22T20:27:05.712Z,99.90
2018-07-22T20:29:35.626Z,99.90
2018-07-22T20:32:05.611Z,99.90
2018-07-22T20:34:35.558Z,99.90
2018-07-22T20:42:05.350Z,99.90
2018-07-22T20:44:35.485Z,99.90
2018-07-22T20:47:05.579Z,99.90
2018-07-22T20:49:35.545Z,99.90
2018-07-22T20:52:05.602Z,99.90
2018-07-22T20:57:05.318Z,99.90
2018-07-22T20:59:35.362Z,99.90
2018-07-22T21:02:05.283Z,99.90
2018-07-22T21:04:35.203Z,99.90
2018-07-22T21:07:05.178Z,99.90
2018-07-22T21:09:35.119Z,99.90
2018-07-22T21:12:49.990Z,99.90
2018-07-22T21:15:20.111Z,99.90
2018-07-22T21:17:51.034Z,99.90
2018-07-22T21:20:21.863Z,99.90
2018-07-22T21:25:21.554Z,99.90
2018-07-22T21:27:51.581Z,99.90
2018-07-22T21:30:21.612Z,99.90
2018-07-22T21:32:51.542Z,99.90
2018-07-22T21:35:21.469Z,99.90
2018-07-22T21:37:51.350Z,99.90
2018-07-22T21:40:21.346Z,99.90
2018-07-22T21:42:51.209Z,99.90
2018-07-22T21:45:21.179Z,99.90
2018-07-22T21:47:51.102Z,99.90
2018-07-22T21:50:21.145Z,99.90
2018-07-22T21:52:51.077Z,99.90
2018-07-22T21:55:21.027Z,99.90
2018-07-22T21:57:50.947Z,99.90
2018-07-22T22:00:32.039Z,99.90
2018-07-22T22:03:03.323Z,99.90
2018-07-22T22:05:33.517Z,99.90
2018-07-22T22:10:33.159Z,99.90
2018-07-22T22:13:03.126Z,99.90
2018-07-22T22:15:33.537Z,99.90
2018-07-22T22:18:04.799Z,99.90
2018-07-22T22:20:34.735Z,99.90
2018-07-22T22:23:04.654Z,99.90
2018-07-22T22:25:34.670Z,99.90
2018-07-22T22:30:34.213Z,99.90
2018-07-22T22:33:04.251Z,99.90
2018-07-22T22:38:03.923Z,99.90
2018-07-22T22:40:33.852Z,99.90
2018-07-22T22:43:03.758Z,99.90
2018-07-22T22:45:34.366Z,99.90
2018-07-22T22:48:04.275Z,99.90
2018-07-22T22:53:04.031Z,99.90
2018-07-22T22:55:34.246Z,99.90
2018-07-22T23:00:45.178Z,99.90
2018-07-22T23:03:15.099Z,99.90
2018-07-22T23:05:45.151Z,99.90
2018-07-22T23:08:15.148Z,99.90
2018-07-22T23:13:14.645Z,99.90
2018-07-22T23:15:44.625Z,99.90
2018-07-22T23:18:14.487Z,99.90
2018-07-22T23:20:44.584Z,99.90
2018-07-22T23:23:14.513Z,99.90
2018-07-22T23:25:44.543Z,99.90
2018-07-22T23:28:14.473Z,99.90
2018-07-22T23:30:44.401Z,99.90
2018-07-22T23:33:14.267Z,99.90
2018-07-22T23:35:44.180Z,99.90
2018-07-22T23:38:14.096Z,99.90
2018-07-22T23:40:44.115Z,99.90
2018-07-22T23:43:14.043Z,99.90
2018-07-22T23:45:44.075Z,99.90
2018-07-22T23:48:14.002Z,99.90
2018-07-22T23:50:43.962Z,99.90
2018-07-22T23:58:13.204Z,99.90
